Time;durP1;ratioP1;P1;durP2;ratioP2;P2;SDS_P1;SDS_P2;PMS_P1;PMS_P2;Temp;Humidity;BMP_temperature;BMP_pressure;BME280_temperature;BME280_humidity;BME280_pressure;Samples;Min_cycle;Max_cycle;Signal;HPM_P1;HPM_P2
2021/09/16 00:01:29;;;;;;;19.17;14.57;;;17.30;99.90;;;;;;5031527;28;20214;-70
2021/09/16 00:03:56;;;;;;;19.10;12.50;;;17.30;99.90;;;;;;5031431;28;20202;-69
2021/09/16 00:06:22;;;;;;;18.95;13.73;;;17.30;99.90;;;;;;5032108;28;20230;-70
2021/09/16 00:08:49;;;;;;;18.13;13.55;;;17.30;99.90;;;;;;5032025;28;20206;-70
2021/09/16 00:11:16;;;;;;;20.83;13.50;;;17.30;99.90;;;;;;5031720;28;20587;-70
2021/09/16 00:13:43;;;;;;;16.73;13.13;;;17.30;99.90;;;;;;5031935;28;20211;-69
2021/09/16 00:16:11;;;;;;;20.33;13.98;;;17.20;99.90;;;;;;5031396;28;20240;-69
2021/09/16 00:18:38;;;;;;;20.97;13.70;;;17.20;99.90;;;;;;5031690;28;20211;-69
2021/09/16 00:21:05;;;;;;;17.13;13.27;;;17.20;99.90;;;;;;5032874;28;20215;-69
2021/09/16 00:23:32;;;;;;;17.27;13.43;;;17.20;99.90;;;;;;5032407;28;20338;-68
2021/09/16 00:25:59;;;;;;;18.03;12.50;;;17.20;99.90;;;;;;5031883;28;20202;-70
2021/09/16 00:28:25;;;;;;;16.43;12.90;;;17.20;99.90;;;;;;5032169;28;20206;-70
2021/09/16 00:30:52;;;;;;;19.53;13.03;;;17.20;99.90;;;;;;5031489;28;20567;-69
2021/09/16 00:33:20;;;;;;;20.53;13.37;;;17.20;99.90;;;;;;5032310;28;20211;-70
2021/09/16 00:35:47;;;;;;;16.13;11.67;;;17.20;99.90;;;;;;5030953;28;20239;-70
2021/09/16 00:38:14;;;;;;;18.23;12.70;;;17.20;99.90;;;;;;5031224;28;20221;-70
2021/09/16 00:40:40;;;;;;;19.33;12.97;;;17.20;99.90;;;;;;5031985;28;20522;-70
2021/09/16 00:43:07;;;;;;;15.30;12.23;;;17.10;99.90;;;;;;5031978;28;20215;-70
2021/09/16 00:45:34;;;;;;;16.77;12.97;;;17.20;99.90;;;;;;5031961;28;20575;-70
2021/09/16 00:48:01;;;;;;;18.30;12.27;;;17.20;99.90;;;;;;5031674;28;20206;-70
2021/09/16 00:50:29;;;;;;;15.07;12.43;;;17.20;99.90;;;;;;5033040;28;20203;-70
2021/09/16 00:52:56;;;;;;;16.70;11.60;;;17.20;99.90;;;;;;5043121;28;20646;-70
2021/09/16 00:55:24;;;;;;;16.73;12.37;;;17.20;99.90;;;;;;5031246;28;20230;-69
2021/09/16 00:57:54;;;;;;;16.03;11.90;;;17.20;99.90;;;;;;5031909;28;20207;-70
2021/09/16 01:00:21;;;;;;;15.97;12.30;;;17.30;99.90;;;;;;5031197;28;20203;-69
2021/09/16 01:02:49;;;;;;;19.23;12.10;;;17.30;99.90;;;;;;5031682;28;20210;-69
2021/09/16 01:05:16;;;;;;;15.47;11.90;;;17.20;99.90;;;;;;5031453;28;20570;-69
2021/09/16 01:07:44;;;;;;;15.63;11.90;;;17.30;99.90;;;;;;5030869;28;20242;-68
2021/09/16 01:10:12;;;;;;;15.63;12.17;;;17.30;99.90;;;;;;5030951;28;20215;-68
2021/09/16 01:12:40;;;;;;;14.77;11.87;;;17.30;99.90;;;;;;5030874;28;20211;-70
2021/09/16 01:15:10;;;;;;;14.85;11.55;;;17.30;99.90;;;;;;5030695;28;20570;-68
2021/09/16 01:17:37;;;;;;;16.90;12.00;;;17.30;99.90;;;;;;5027291;28;20218;-70
2021/09/16 01:20:05;;;;;;;15.20;11.20;;;17.30;99.90;;;;;;5030597;28;20207;-68
2021/09/16 01:22:34;;;;;;;15.80;12.37;;;17.30;99.90;;;;;;5030666;28;20218;-69
2021/09/16 01:25:01;;;;;;;13.57;11.67;;;17.30;99.90;;;;;;5030699;28;20217;-69
2021/09/16 01:27:28;;;;;;;14.37;11.90;;;17.30;99.90;;;;;;5031297;28;20209;-69
2021/09/16 01:29:55;;;;;;;17.13;11.80;;;17.30;99.90;;;;;;5031519;28;20213;-68
2021/09/16 01:32:21;;;;;;;18.73;12.90;;;17.30;99.90;;;;;;5030360;28;20202;-68
2021/09/16 01:34:48;;;;;;;18.50;11.07;;;17.30;99.90;;;;;;5030703;28;20206;-70
2021/09/16 01:37:15;;;;;;;16.03;11.87;;;17.30;99.90;;;;;;5030761;28;20242;-69
2021/09/16 01:39:43;;;;;;;15.93;11.33;;;17.30;99.90;;;;;;5030964;28;20215;-69
2021/09/16 01:42:10;;;;;;;17.47;12.80;;;17.30;99.90;;;;;;5030591;28;20569;-70
2021/09/16 01:44:37;;;;;;;14.93;12.60;;;17.30;99.90;;;;;;5030873;28;20206;-69
2021/09/16 01:47:04;;;;;;;18.40;13.00;;;17.30;99.90;;;;;;5023207;28;20210;-68
2021/09/16 01:49:31;;;;;;;15.37;12.13;;;17.30;99.90;;;;;;5030448;28;20198;-69
2021/09/16 01:51:58;;;;;;;19.20;12.80;;;17.30;99.90;;;;;;5044332;28;20216;-69
2021/09/16 01:54:25;;;;;;;15.87;12.67;;;17.30;99.90;;;;;;5030793;28;20592;-69
2021/09/16 01:56:53;;;;;;;18.80;12.90;;;17.20;99.90;;;;;;5031159;28;20430;-68
2021/09/16 01:59:20;;;;;;;15.05;11.50;;;17.30;99.90;;;;;;5035647;28;20206;-69
2021/09/16 02:01:46;;;;;;;18.10;11.63;;;17.30;99.90;;;;;;5039232;28;20210;-69
2021/09/16 02:04:13;;;;;;;15.13;11.63;;;17.20;99.90;;;;;;5030356;28;20207;-69
2021/09/16 02:06:40;;;;;;;14.20;11.50;;;17.20;99.90;;;;;;5031068;28;20238;-69
2021/09/16 02:09:07;;;;;;;15.90;12.77;;;17.30;99.90;;;;;;5030573;28;20207;-69
2021/09/16 02:11:33;;;;;;;18.83;12.47;;;17.20;99.90;;;;;;5034157;28;20214;-69
2021/09/16 02:14:02;;;;;;;18.87;13.10;;;17.20;99.90;;;;;;5034302;28;20571;-69
2021/09/16 02:16:29;;;;;;;18.00;14.30;;;17.20;99.90;;;;;;5033632;28;20222;-69
2021/09/16 02:18:55;;;;;;;14.67;12.87;;;17.20;99.90;;;;;;5030870;28;20577;-69
2021/09/16 02:21:22;;;;;;;15.60;12.33;;;17.20;99.90;;;;;;5033698;28;20207;-69
2021/09/16 02:23:49;;;;;;;17.30;12.67;;;17.20;99.90;;;;;;5034180;28;20203;-69
2021/09/16 02:26:15;;;;;;;17.60;11.83;;;17.20;99.90;;;;;;5033771;28;20214;-69
2021/09/16 02:28:42;;;;;;;18.37;13.10;;;17.10;99.90;;;;;;5034458;28;20218;-69
2021/09/16 02:31:10;;;;;;;19.47;13.07;;;17.10;99.90;;;;;;5034206;28;20217;-69
2021/09/16 02:33:37;;;;;;;20.83;13.55;;;17.00;99.90;;;;;;5033818;28;20210;-69
2021/09/16 02:36:04;;;;;;;15.73;13.02;;;17.10;99.90;;;;;;5033619;28;20226;-69
2021/09/16 02:38:31;;;;;;;14.33;12.37;;;17.00;99.90;;;;;;5025458;28;20572;-69
2021/09/16 02:40:58;;;;;;;15.77;12.70;;;17.00;99.90;;;;;;5033799;28;20632;-69
2021/09/16 02:43:25;;;;;;;17.27;12.13;;;17.00;99.90;;;;;;5033832;28;20217;-69
2021/09/16 02:45:51;;;;;;;18.93;12.73;;;16.90;99.90;;;;;;5033565;28;20214;-68
2021/09/16 02:48:20;;;;;;;17.60;12.43;;;17.00;99.90;;;;;;5033332;28;20203;-68
2021/09/16 02:50:46;;;;;;;14.17;11.63;;;16.90;99.90;;;;;;5032759;28;20217;-68
2021/09/16 02:53:13;;;;;;;14.90;11.70;;;16.90;99.90;;;;;;5034209;28;20210;-69
2021/09/16 02:55:40;;;;;;;17.42;12.30;;;16.80;99.90;;;;;;5033377;28;20216;-69
2021/09/16 02:58:07;;;;;;;15.20;12.03;;;16.80;99.90;;;;;;5033403;28;20207;-69
2021/09/16 03:00:33;;;;;;;15.70;11.93;;;16.80;99.90;;;;;;5033359;28;20238;-68
2021/09/16 03:03:00;;;;;;;19.27;13.93;;;16.80;99.90;;;;;;5033690;28;20211;-68
2021/09/16 03:05:28;;;;;;;20.43;13.60;;;16.80;99.90;;;;;;5033500;28;20568;-68
2021/09/16 03:07:55;;;;;;;18.00;13.57;;;16.80;99.90;;;;;;5033144;28;20246;-68
2021/09/16 03:10:22;;;;;;;16.80;13.37;;;16.80;99.90;;;;;;5033099;28;20226;-69
2021/09/16 03:12:48;;;;;;;18.85;14.85;;;16.80;99.90;;;;;;5032824;28;20214;-68
2021/09/16 03:15:15;;;;;;;15.70;12.67;;;16.80;99.90;;;;;;5032840;28;20215;-69
2021/09/16 03:17:42;;;;;;;18.80;14.37;;;16.80;99.90;;;;;;5032394;28;20223;-69
2021/09/16 03:20:10;;;;;;;18.67;13.60;;;16.80;99.90;;;;;;5022184;28;20210;-69
2021/09/16 03:22:38;;;;;;;18.60;13.02;;;16.80;99.90;;;;;;5033225;28;20655;-68
2021/09/16 03:25:08;;;;;;;17.00;13.17;;;16.80;99.90;;;;;;5033425;28;20280;-69
2021/09/16 03:27:35;;;;;;;16.67;12.27;;;16.80;99.90;;;;;;5033201;28;20210;-69
2021/09/16 03:30:03;;;;;;;18.63;13.27;;;16.80;99.90;;;;;;5019398;28;20214;-69
2021/09/16 03:32:29;;;;;;;16.83;12.90;;;16.70;99.90;;;;;;5032839;28;20215;-69
2021/09/16 03:34:56;;;;;;;15.50;12.93;;;16.70;99.90;;;;;;5032632;28;20652;-68
2021/09/16 03:37:23;;;;;;;14.37;11.83;;;16.70;99.90;;;;;;5033071;28;20234;-68
2021/09/16 03:39:51;;;;;;;19.23;12.77;;;16.70;99.90;;;;;;5032966;28;20207;-69
2021/09/16 03:42:18;;;;;;;18.13;12.80;;;16.80;99.90;;;;;;5032594;28;20210;-68
2021/09/16 03:44:45;;;;;;;16.00;13.33;;;16.70;99.90;;;;;;5032476;28;20215;-69
2021/09/16 03:47:11;;;;;;;17.40;13.70;;;16.70;99.90;;;;;;5032742;28;20206;-68
2021/09/16 03:49:39;;;;;;;16.30;13.17;;;16.70;99.90;;;;;;5032455;28;20210;-68
2021/09/16 03:52:07;;;;;;;16.70;12.73;;;16.70;99.90;;;;;;5032204;28;20214;-68
2021/09/16 03:54:33;;;;;;;16.37;12.57;;;16.70;99.90;;;;;;5032715;28;20246;-69
2021/09/16 03:57:02;;;;;;;17.23;12.50;;;16.70;99.90;;;;;;5032924;28;20223;-70
2021/09/16 03:59:29;;;;;;;19.87;13.73;;;16.70;99.90;;;;;;5031990;28;20202;-68
2021/09/16 04:01:55;;;;;;;17.07;13.27;;;16.70;99.90;;;;;;5031566;28;20214;-69
2021/09/16 04:04:22;;;;;;;17.03;12.77;;;16.70;99.90;;;;;;5032018;28;20207;-70
2021/09/16 04:06:49;;;;;;;19.30;13.23;;;16.70;99.90;;;;;;5032172;28;20242;-69
2021/09/16 04:09:16;;;;;;;17.33;13.90;;;16.70;99.90;;;;;;5032175;28;20202;-69
2021/09/16 04:11:43;;;;;;;20.27;13.63;;;16.70;99.90;;;;;;5031216;28;20563;-69
2021/09/16 04:14:11;;;;;;;17.40;12.63;;;16.70;99.90;;;;;;5031493;28;20206;-70
2021/09/16 04:16:38;;;;;;;17.43;13.23;;;16.70;99.90;;;;;;5032365;28;20230;-68
2021/09/16 04:19:05;;;;;;;16.93;13.57;;;16.70;99.90;;;;;;5031784;28;20218;-69
2021/09/16 04:21:33;;;;;;;17.57;13.73;;;16.70;99.90;;;;;;5020534;28;20210;-68
2021/09/16 04:24:00;;;;;;;15.60;12.70;;;16.70;99.90;;;;;;5032345;28;20217;-69
2021/09/16 04:26:26;;;;;;;16.67;13.27;;;16.70;99.90;;;;;;5032059;28;20206;-68
2021/09/16 04:28:53;;;;;;;14.80;13.20;;;16.70;99.90;;;;;;5032073;28;20690;-69
2021/09/16 04:31:21;;;;;;;17.40;13.10;;;16.70;99.90;;;;;;5031550;28;20203;-69
2021/09/16 04:33:48;;;;;;;18.03;12.27;;;16.70;99.90;;;;;;5031710;28;20212;-69
2021/09/16 04:36:15;;;;;;;16.53;12.73;;;16.70;99.90;;;;;;5032684;28;20238;-70
2021/09/16 04:38:42;;;;;;;17.87;12.93;;;16.70;99.90;;;;;;5028009;28;20206;-68
2021/09/16 04:41:09;;;;;;;15.27;12.93;;;16.70;99.90;;;;;;5030374;28;20210;-69
2021/09/16 04:43:36;;;;;;;18.10;13.00;;;16.60;99.90;;;;;;5031459;28;20207;-69
2021/09/16 04:46:02;;;;;;;15.83;12.73;;;16.60;99.90;;;;;;5031189;28;20210;-69
2021/09/16 04:48:30;;;;;;;16.00;12.23;;;16.60;99.90;;;;;;5031380;28;20202;-69
2021/09/16 04:50:57;;;;;;;17.60;12.83;;;16.60;99.90;;;;;;5037745;28;20627;-69
2021/09/16 04:53:24;;;;;;;17.87;12.27;;;16.60;99.90;;;;;;5037865;28;20214;-69
2021/09/16 04:55:51;;;;;;;14.50;11.63;;;16.60;99.90;;;;;;5031467;28;20203;-68
2021/09/16 04:58:17;;;;;;;17.53;12.60;;;16.60;99.90;;;;;;5027611;28;20576;-69
2021/09/16 05:00:44;;;;;;;19.73;13.30;;;16.60;99.90;;;;;;5030750;28;20891;-69
2021/09/16 05:03:11;;;;;;;20.23;13.87;;;16.60;99.90;;;;;;5030510;28;20209;-68
2021/09/16 05:05:39;;;;;;;16.37;13.13;;;16.60;99.90;;;;;;5030606;28;20211;-69
2021/09/16 05:08:06;;;;;;;17.83;12.43;;;16.60;99.90;;;;;;5036409;28;20235;-69
2021/09/16 05:10:33;;;;;;;16.13;13.10;;;16.60;99.90;;;;;;5025669;28;20210;-70
2021/09/16 05:12:59;;;;;;;18.00;13.07;;;16.60;99.90;;;;;;5028217;28;20202;-69
2021/09/16 05:15:26;;;;;;;21.30;13.50;;;16.60;99.90;;;;;;5030198;28;20218;-69
2021/09/16 05:17:53;;;;;;;16.10;13.23;;;16.50;99.90;;;;;;5029311;28;20223;-71
2021/09/16 05:20:20;;;;;;;18.53;13.50;;;16.50;99.90;;;;;;5031480;28;20198;-70
2021/09/16 05:22:48;;;;;;;16.80;13.97;;;16.50;99.90;;;;;;5031004;28;20217;-72
2021/09/16 05:25:15;;;;;;;14.80;12.97;;;16.50;99.90;;;;;;5028774;28;20590;-70
2021/09/16 05:27:42;;;;;;;18.47;13.53;;;16.60;99.90;;;;;;5030789;28;20210;-69
2021/09/16 05:30:09;;;;;;;18.37;12.90;;;16.60;99.90;;;;;;5029908;28;21406;-69
2021/09/16 05:32:38;;;;;;;19.63;13.47;;;16.60;99.90;;;;;;5030558;28;20221;-69
2021/09/16 05:35:05;;;;;;;18.33;12.90;;;16.70;99.90;;;;;;5030064;28;20545;-69
2021/09/16 05:37:32;;;;;;;17.63;13.00;;;16.70;99.90;;;;;;5031269;28;20226;-69
2021/09/16 05:40:00;;;;;;;20.70;14.37;;;16.70;99.90;;;;;;5030427;28;20210;-69
2021/09/16 05:42:27;;;;;;;17.83;14.00;;;16.80;99.90;;;;;;5030668;28;20210;-68
2021/09/16 05:44:54;;;;;;;18.67;14.57;;;16.80;99.90;;;;;;5031445;28;20209;-69
2021/09/16 05:47:21;;;;;;;16.90;13.80;;;16.80;99.90;;;;;;5034732;28;20198;-68
2021/09/16 05:49:47;;;;;;;18.10;14.03;;;16.80;99.90;;;;;;5034932;28;20206;-68
2021/09/16 05:52:15;;;;;;;18.40;13.83;;;16.80;99.90;;;;;;5034398;28;20207;-69
2021/09/16 05:54:41;;;;;;;18.73;14.03;;;16.70;99.90;;;;;;5034914;28;20218;-69
2021/09/16 05:57:09;;;;;;;18.00;12.97;;;16.80;99.90;;;;;;5035131;28;20230;-70
2021/09/16 05:59:36;;;;;;;17.30;13.63;;;16.80;99.90;;;;;;5033985;28;20219;-68
2021/09/16 06:02:03;;;;;;;17.20;13.87;;;16.80;99.90;;;;;;5025631;28;20215;-69
2021/09/16 06:04:30;;;;;;;16.23;13.20;;;16.90;99.90;;;;;;5029008;28;20200;-69
2021/09/16 06:06:59;;;;;;;20.90;14.23;;;16.90;99.90;;;;;;5033681;28;20272;-68
2021/09/16 06:09:26;;;;;;;20.03;15.20;;;16.90;99.90;;;;;;5034877;28;20659;-69
2021/09/16 06:11:56;;;;;;;20.03;14.43;;;16.90;99.90;;;;;;5033806;28;20203;-69
2021/09/16 06:14:24;;;;;;;23.27;14.60;;;16.90;99.90;;;;;;5034327;28;20207;-69
2021/09/16 06:16:52;;;;;;;22.80;15.63;;;17.10;99.90;;;;;;5026872;28;20536;-69
2021/09/16 06:19:18;;;;;;;19.13;15.20;;;17.00;99.90;;;;;;5033943;28;20214;-69
2021/09/16 06:21:45;;;;;;;19.67;15.53;;;17.10;99.90;;;;;;5029966;28;20212;-70
2021/09/16 06:24:12;;;;;;;19.10;15.17;;;17.10;99.90;;;;;;5034071;28;20211;-67
2021/09/16 06:26:39;;;;;;;20.77;15.10;;;17.10;99.90;;;;;;5030690;28;20206;-66
2021/09/16 06:29:05;;;;;;;19.70;14.63;;;17.20;99.90;;;;;;5031062;28;20214;-68
2021/09/16 06:31:34;;;;;;;21.33;14.60;;;17.30;99.90;;;;;;5034518;28;20640;-68
2021/09/16 06:34:00;;;;;;;18.35;14.98;;;17.40;99.90;;;;;;5033666;28;20248;-68
2021/09/16 06:36:27;;;;;;;21.50;14.27;;;17.50;99.90;;;;;;5033290;28;20247;-66
2021/09/16 06:38:54;;;;;;;16.55;13.73;;;17.50;99.90;;;;;;5033640;28;20229;-67
2021/09/16 06:41:20;;;;;;;20.23;14.43;;;17.60;99.90;;;;;;5034168;28;20205;-67
2021/09/16 06:43:47;;;;;;;25.23;15.17;;;17.60;99.90;;;;;;5025687;28;20630;-67
2021/09/16 06:46:14;;;;;;;18.05;14.98;;;17.60;99.90;;;;;;5020851;28;20686;-67
2021/09/16 06:48:42;;;;;;;18.27;13.98;;;17.60;99.90;;;;;;5034608;28;20526;-66
2021/09/16 06:51:09;;;;;;;20.07;14.77;;;17.60;99.90;;;;;;5034447;28;20214;-66
2021/09/16 06:53:35;;;;;;;16.63;13.57;;;17.60;99.90;;;;;;5034067;28;20214;-67
2021/09/16 06:56:02;;;;;;;20.10;15.07;;;17.60;99.90;;;;;;5033700;28;20207;-67
2021/09/16 06:58:29;;;;;;;20.93;14.63;;;17.60;99.90;;;;;;5033602;28;20671;-66
2021/09/16 07:00:56;;;;;;;20.83;15.90;;;17.60;99.90;;;;;;5033234;28;20230;-67
2021/09/16 07:03:23;;;;;;;21.23;15.27;;;17.50;99.90;;;;;;5032592;28;20210;-69
2021/09/16 07:05:51;;;;;;;21.63;17.50;;;17.40;99.90;;;;;;5033608;28;20213;-69
2021/09/16 07:08:17;;;;;;;18.52;14.77;;;17.40;99.90;;;;;;5020810;28;20261;-68
2021/09/16 07:10:44;;;;;;;23.48;15.02;;;17.40;99.90;;;;;;5031959;28;20210;-68
2021/09/16 07:13:11;;;;;;;19.17;14.57;;;17.40;99.90;;;;;;5031695;28;20217;-67
2021/09/16 07:15:38;;;;;;;18.47;14.37;;;17.40;99.90;;;;;;5032652;28;20219;-68
2021/09/16 07:18:04;;;;;;;20.08;15.50;;;17.40;99.90;;;;;;5031589;28;20573;-68
2021/09/16 07:20:31;;;;;;;22.35;15.75;;;17.40;99.90;;;;;;5031188;28;20207;-68
2021/09/16 07:22:59;;;;;;;23.15;16.67;;;17.40;99.90;;;;;;5032971;28;20215;-68
2021/09/16 07:25:26;;;;;;;21.25;16.52;;;17.40;99.90;;;;;;5031085;28;20258;-69
2021/09/16 07:27:53;;;;;;;19.90;16.07;;;17.40;99.90;;;;;;5031771;28;20210;-68
2021/09/16 07:30:20;;;;;;;22.10;16.25;;;17.50;99.90;;;;;;5024664;28;20215;-68
2021/09/16 07:32:46;;;;;;;21.17;15.13;;;17.50;99.90;;;;;;5032360;28;20207;-68
2021/09/16 07:35:13;;;;;;;21.08;17.00;;;17.50;99.90;;;;;;5031686;28;20211;-68
2021/09/16 07:37:40;;;;;;;21.50;16.10;;;17.50;99.90;;;;;;5034904;28;20553;-68
2021/09/16 07:40:10;;;;;;;21.47;15.87;;;17.60;99.90;;;;;;5029391;28;20713;-68
2021/09/16 07:42:37;;;;;;;20.02;16.35;;;17.60;99.90;;;;;;5051893;28;20565;-68
2021/09/16 07:45:05;;;;;;;24.92;17.13;;;17.60;99.90;;;;;;5034455;28;20202;-67
2021/09/16 07:47:31;;;;;;;27.08;17.80;;;17.70;99.90;;;;;;5031372;28;20214;-68
2021/09/16 07:49:58;;;;;;;22.17;16.73;;;17.80;99.90;;;;;;5029931;28;20302;-68
2021/09/16 07:52:25;;;;;;;23.48;16.38;;;17.90;99.90;;;;;;5029087;28;20570;-67
2021/09/16 07:54:52;;;;;;;20.50;17.05;;;17.90;99.90;;;;;;5025117;28;20217;-68
2021/09/16 07:57:20;;;;;;;21.20;16.92;;;17.90;99.90;;;;;;5028412;28;20206;-67
2021/09/16 07:59:47;;;;;;;22.13;16.38;;;18.20;99.90;;;;;;5024570;28;20541;-67
2021/09/16 08:02:13;;;;;;;24.80;16.10;;;18.10;99.90;;;;;;5024605;28;20207;-67
2021/09/16 08:04:40;;;;;;;21.42;17.10;;;18.20;99.90;;;;;;5023895;28;20562;-68
2021/09/16 08:07:07;;;;;;;20.85;16.90;;;18.20;99.90;;;;;;4978062;28;1131911;-67
2021/09/16 08:09:34;;;;;;;20.20;16.90;;;18.30;99.90;;;;;;5031283;28;20233;-67
2021/09/16 08:12:01;;;;;;;21.83;17.33;;;18.50;99.90;;;;;;5031781;28;20297;-68
2021/09/16 08:14:30;;;;;;;19.95;17.27;;;18.60;99.90;;;;;;5032180;28;20203;-69
2021/09/16 08:16:57;;;;;;;24.75;17.48;;;18.70;99.90;;;;;;5032768;28;20202;-69
2021/09/16 08:19:24;;;;;;;21.25;16.85;;;18.90;99.90;;;;;;5015512;28;20230;-68
2021/09/16 08:21:51;;;;;;;21.73;16.77;;;19.00;99.90;;;;;;5012009;28;20214;-68
2021/09/16 08:24:18;;;;;;;22.65;16.98;;;19.10;99.90;;;;;;5026569;28;20210;-68
2021/09/16 08:26:45;;;;;;;20.35;17.80;;;19.10;99.90;;;;;;5031131;28;20237;-67
2021/09/16 08:29:11;;;;;;;20.27;17.70;;;19.20;99.90;;;;;;5028907;28;20206;-68
2021/09/16 08:31:44;;;;;;;24.67;18.35;;;19.30;99.90;;;;;;5028909;28;20210;-68
2021/09/16 08:34:11;;;;;;;22.50;17.48;;;19.40;99.90;;;;;;5029210;28;20232;-68
2021/09/16 08:36:37;;;;;;;24.75;16.63;;;19.50;99.90;;;;;;5031608;28;20219;-68
2021/09/16 08:39:04;;;;;;;26.02;18.35;;;19.70;99.90;;;;;;5022758;28;20234;-67
2021/09/16 08:41:33;;;;;;;19.60;17.10;;;19.80;99.90;;;;;;5027588;28;20579;-68
2021/09/16 08:44:01;;;;;;;21.75;17.77;;;19.80;99.90;;;;;;5032001;28;20249;-68
2021/09/16 08:46:28;;;;;;;26.13;16.98;;;19.80;99.90;;;;;;5031919;28;20212;-68
2021/09/16 08:48:56;;;;;;;22.50;17.55;;;19.80;99.90;;;;;;5026847;28;20210;-68
2021/09/16 08:51:23;;;;;;;20.08;16.75;;;19.90;99.90;;;;;;5017733;28;20203;-68
2021/09/16 08:53:53;;;;;;;21.98;17.17;;;20.10;99.90;;;;;;5026593;28;20214;-67
2021/09/16 08:56:22;;;;;;;22.98;18.23;;;20.10;99.90;;;;;;5022208;28;20253;-67
2021/09/16 08:58:49;;;;;;;24.92;18.40;;;20.10;99.90;;;;;;5013683;28;20275;-67
2021/09/16 09:01:16;;;;;;;21.38;17.42;;;20.10;99.90;;;;;;5020659;28;20715;-67
2021/09/16 09:03:43;;;;;;;22.48;18.13;;;20.10;99.90;;;;;;5015843;28;20208;-67
2021/09/16 09:09:18;;;;;;;19.83;17.55;;;20.10;99.90;;;;;;5087879;27;20600;-69
2021/09/16 09:11:53;;;;;;;23.15;19.27;;;20.30;99.90;;;;;;5067390;28;20205;-69
2021/09/16 09:14:21;;;;;;;26.60;20.27;;;20.30;99.90;;;;;;5070515;28;20211;-69
2021/09/16 09:16:48;;;;;;;23.23;16.88;;;20.40;99.90;;;;;;5068993;28;20205;-68
2021/09/16 09:19:16;;;;;;;23.83;17.83;;;20.30;99.90;;;;;;5068902;28;20627;-69
2021/09/16 09:21:44;;;;;;;23.90;18.13;;;20.30;99.90;;;;;;5068171;28;20777;-68
2021/09/16 09:24:12;;;;;;;25.58;17.85;;;20.40;99.90;;;;;;5067103;28;20259;-68
2021/09/16 09:26:42;;;;;;;21.25;17.40;;;20.50;99.90;;;;;;5065581;28;20201;-68
2021/09/16 09:29:16;;;;;;;26.20;19.02;;;20.70;99.90;;;;;;5064109;28;20201;-69
2021/09/16 09:31:53;;;;;;;21.45;16.40;;;20.80;99.90;;;;;;5070495;28;20569;-69
2021/09/16 09:34:29;;;;;;;20.25;17.20;;;20.90;99.90;;;;;;5069226;28;20205;-68
2021/09/16 09:37:09;;;;;;;26.98;18.08;;;21.00;99.90;;;;;;5067262;28;20235;-69
2021/09/16 09:39:36;;;;;;;25.10;19.17;;;21.30;99.90;;;;;;5067935;28;20216;-69
2021/09/16 09:42:19;;;;;;;20.48;17.20;;;21.50;99.90;;;;;;5080835;28;20213;-68
2021/09/16 09:44:46;;;;;;;21.85;17.77;;;21.60;99.90;;;;;;5081592;28;20289;-69
2021/09/16 09:47:13;;;;;;;23.17;18.13;;;21.80;99.90;;;;;;5061710;28;20579;-69
2021/09/16 09:49:40;;;;;;;22.67;18.27;;;21.90;99.90;;;;;;5071044;28;20197;-68
2021/09/16 09:52:07;;;;;;;26.42;17.95;;;22.00;99.90;;;;;;5067418;28;20206;-67
2021/09/16 09:54:36;;;;;;;21.13;16.77;;;22.20;99.90;;;;;;5062401;28;20222;-67
2021/09/16 09:57:10;;;;;;;22.48;17.77;;;22.50;99.90;;;;;;5061475;28;20256;-67
2021/09/16 10:00:00;;;;;;;22.38;17.25;;;23.00;99.90;;;;;;5067061;28;20294;-68
2021/09/16 10:02:30;;;;;;;21.02;16.85;;;24.10;99.90;;;;;;5066295;28;20655;-67
2021/09/16 10:04:57;;;;;;;21.52;16.38;;;24.80;99.90;;;;;;5067431;28;20216;-67
2021/09/16 10:07:33;;;;;;;19.42;17.02;;;24.80;99.90;;;;;;5066947;28;20284;-68
2021/09/16 10:10:01;;;;;;;20.60;17.42;;;24.70;99.90;;;;;;5066768;28;20585;-67
2021/09/16 10:12:29;;;;;;;23.55;17.77;;;24.50;99.90;;;;;;5065951;28;20556;-68
2021/09/16 10:14:57;;;;;;;20.38;17.33;;;24.20;99.90;;;;;;5067159;28;20217;-68
2021/09/16 10:17:25;;;;;;;22.52;17.55;;;24.00;99.90;;;;;;5066858;28;20213;-67
2021/09/16 10:19:52;;;;;;;20.65;16.90;;;23.80;99.90;;;;;;5055450;28;20578;-68
2021/09/16 10:22:19;;;;;;;20.38;16.40;;;23.60;99.90;;;;;;5053334;28;20666;-68
2021/09/16 10:24:46;;;;;;;21.33;16.75;;;23.50;99.90;;;;;;5066089;28;20576;-68
2021/09/16 10:27:32;;;;;;;24.90;17.95;;;23.40;99.90;;;;;;5064048;28;20650;-68
2021/09/16 10:30:21;;;;;;;21.88;17.00;;;23.30;99.90;;;;;;5066296;28;20216;-68
2021/09/16 10:32:59;;;;;;;20.27;16.83;;;23.50;99.90;;;;;;5055826;28;20206;-69
2021/09/16 10:35:26;;;;;;;22.60;17.15;;;23.80;99.90;;;;;;5063743;28;20205;-69
2021/09/16 10:37:53;;;;;;;23.00;18.50;;;24.10;99.90;;;;;;5057025;28;20214;-68
2021/09/16 10:40:27;;;;;;;20.88;17.67;;;24.40;99.90;;;;;;5060114;28;20205;-68
2021/09/16 10:42:57;;;;;;;20.95;17.35;;;24.30;99.90;;;;;;5061555;28;20814;-69
2021/09/16 10:45:34;;;;;;;18.95;16.40;;;24.10;99.90;;;;;;5059777;28;20251;-68
2021/09/16 10:48:27;;;;;;;22.13;17.23;;;24.00;99.90;;;;;;5053339;28;20224;-70
2021/09/16 10:50:56;;;;;;;19.60;16.58;;;24.00;99.90;;;;;;5058329;28;20617;-69
2021/09/16 10:53:42;;;;;;;20.02;16.10;;;24.00;99.90;;;;;;5053358;28;20528;-70
2021/09/16 10:56:38;;;;;;;20.17;16.63;;;24.20;99.90;;;;;;5039042;28;20572;-68
2021/09/16 10:59:05;;;;;;;22.95;16.73;;;24.40;99.90;;;;;;5052967;28;20206;-69
2021/09/16 11:02:01;;;;;;;22.77;16.80;;;24.60;99.90;;;;;;5052140;28;20206;-69
2021/09/16 11:05:10;;;;;;;22.48;16.85;;;24.60;99.90;;;;;;5051976;28;20292;-68
2021/09/16 11:07:56;;;;;;;22.42;17.02;;;24.60;99.90;;;;;;5051926;28;20324;-68
2021/09/16 11:10:52;;;;;;;20.13;17.25;;;24.60;99.90;;;;;;5051655;28;20300;-68
2021/09/16 11:13:49;;;;;;;20.73;17.00;;;24.40;99.90;;;;;;5046319;28;20678;-68
2021/09/16 11:16:22;;;;;;;20.55;17.00;;;24.30;99.90;;;;;;5051515;28;20209;-68
2021/09/16 11:18:52;;;;;;;23.25;17.20;;;24.10;99.90;;;;;;5052613;28;20206;-68
2021/09/16 11:21:21;;;;;;;19.42;16.20;;;23.90;99.90;;;;;;5040416;28;20225;-68
2021/09/16 11:23:50;;;;;;;21.45;16.77;;;23.70;99.90;;;;;;5050397;28;20259;-68
2021/09/16 11:26:19;;;;;;;23.05;17.67;;;23.40;99.90;;;;;;5067131;28;20653;-67
2021/09/16 11:28:57;;;;;;;26.63;17.95;;;23.30;99.90;;;;;;5054394;28;20627;-68
2021/09/16 11:31:24;;;;;;;22.38;17.90;;;23.20;99.90;;;;;;5062911;28;20295;-68
2021/09/16 11:34:22;;;;;;;23.10;17.75;;;23.10;99.90;;;;;;5062774;28;20638;-69
2021/09/16 11:37:10;;;;;;;22.05;17.88;;;22.60;99.90;;;;;;5048660;28;20785;-68
2021/09/16 11:39:37;;;;;;;21.35;17.25;;;23.00;99.90;;;;;;5043839;28;20321;-68
2021/09/16 11:42:25;;;;;;;23.40;16.77;;;22.90;99.90;;;;;;5045209;28;20194;-68
2021/09/16 11:45:00;;;;;;;21.83;18.40;;;22.90;99.90;;;;;;5044563;28;20262;-66
2021/09/16 11:47:27;;;;;;;20.30;17.77;;;23.00;99.90;;;;;;5045367;28;20208;-65
2021/09/16 11:49:56;;;;;;;21.85;18.17;;;23.00;99.90;;;;;;5052762;28;20217;-65
2021/09/16 11:52:24;;;;;;;21.85;18.17;;;22.90;99.90;;;;;;5054199;28;20209;-66
2021/09/16 11:55:06;;;;;;;24.75;19.10;;;23.00;99.90;;;;;;5051423;28;20667;-66
2021/09/16 11:57:32;;;;;;;23.40;17.98;;;23.10;99.90;;;;;;5049753;28;20198;-66
2021/09/16 12:00:23;;;;;;;22.88;18.15;;;23.20;99.90;;;;;;5048234;28;20292;-65
2021/09/16 12:02:49;;;;;;;25.38;17.55;;;23.50;99.90;;;;;;5035586;28;20217;-65
2021/09/16 12:08:11;;;;;;;19.33;17.25;;;23.80;99.90;;;;;;5129472;27;20547;-66
2021/09/16 12:10:44;;;;;;;21.90;16.67;;;24.70;99.90;;;;;;5111192;28;20203;-66
2021/09/16 12:13:14;;;;;;;22.67;17.95;;;25.00;99.90;;;;;;5105294;28;20217;-67
2021/09/16 12:15:42;;;;;;;22.05;18.05;;;25.40;99.90;;;;;;5097961;28;20215;-66
2021/09/16 12:18:10;;;;;;;26.40;17.95;;;25.70;99.90;;;;;;5115193;28;20210;-68
2021/09/16 12:20:38;;;;;;;21.88;17.67;;;26.00;99.90;;;;;;5112833;28;20255;-65
2021/09/16 12:23:06;;;;;;;21.38;18.35;;;26.00;99.90;;;;;;5114717;28;20214;-65
2021/09/16 12:28:27;;;;;;;22.40;17.08;;;26.30;99.90;;;;;;5088994;28;20611;-65
2021/09/16 12:30:54;;;;;;;20.88;16.38;;;27.00;99.90;;;;;;5073555;28;20217;-65
2021/09/16 12:33:33;;;;;;;18.73;16.17;;;27.30;99.90;;;;;;5070819;28;20213;-65
2021/09/16 12:36:11;;;;;;;21.25;16.75;;;27.30;99.90;;;;;;5063366;28;20597;-65
2021/09/16 12:38:39;;;;;;;20.92;15.82;;;27.30;99.90;;;;;;5054200;28;20292;-65
2021/09/16 12:41:23;;;;;;;18.58;16.52;;;27.10;99.90;;;;;;5051943;28;20650;-65
2021/09/16 12:43:56;;;;;;;17.92;16.08;;;27.10;99.90;;;;;;5047257;28;20218;-65